Terminal Aerodrome Forecast
Issued by NWS

Home | Current Version | Previous Version | Text Only | Print | Product List | Glossary On
Versions: 1 2 3 4 5 6 7 8 9 10 11 12 13 14
000
FTUS45 KPIH 231136
TAFSUN
TAF
KSUN 231136Z 2312/2418 31009KT P6SM SCT150
     FM231700 14008KT P6SM VCTS SCT050CB OVC090
     FM232300 20009KT P6SM VCTS SCT050CB OVC090
     FM240500 31010KT P6SM FEW060 BKN090
      AMD LTD TO CLD VIS AND WIND TIL 231300=

USA.gov is the U.S. government's official web portal to all federal, state and local government web resources and services.